Nowshera Weather



Nowshera's Current Weather

Temprature 40o haze

haze

Rain: 0 %

Min Temprature40o
Max Temprature40o
Humidity23
Wind Speed3.1 m/h
Sun Rise05:02:17
Sun Set19:27:09
Current Time: 26-Jun-2019 15:00:38
Lat/Lon: 34.02, 71.98




Nowshera's Geo Location



Nowshera's Weather Forecast

Time Overall Temp Min Temp Max Temp Humidity Wind Speed Rain
26-Jun-2019 (Wed)
17:00:00 clear sky 41.080 41.050 41.080 9 2.83 m/h 0 %
20:00:00 clear sky 38.470 38.447 38.470 11 3.34 m/h 0 %
23:00:00 clear sky 35.760 35.740 35.760 17 0.72 m/h 0 %
27-Jun-2019 (Thu)
02:00:00 clear sky 32.990 32.979 32.990 20 1.86 m/h 0 %
05:00:00 few clouds 31.565 31.565 31.565 22 2 m/h 0 %
08:00:00 clear sky 34.650 34.650 34.650 17 0.96 m/h 0 %
11:00:00 clear sky 39.174 39.174 39.174 11 1.21 m/h 0 %
14:00:00 clear sky 41.650 41.650 41.650 8 2.22 m/h 0 %
17:00:00 clear sky 42.380 42.380 42.380 8 4.34 m/h 0 %
20:00:00 clear sky 37.994 37.994 37.994 17 2.34 m/h 0 %
23:00:00 clear sky 36.135 36.135 36.135 20 1.06 m/h 0 %
28-Jun-2019 (Fri)
02:00:00 clear sky 33.028 33.028 33.028 21 1.96 m/h 0 %
05:00:00 clear sky 31.228 31.228 31.228 23 1.25 m/h 0 %
08:00:00 clear sky 34.749 34.749 34.749 17 1.23 m/h 0 %
11:00:00 clear sky 40.025 40.025 40.025 8 1.51 m/h 0 %
14:00:00 clear sky 42.831 42.831 42.831 7 0.5 m/h 0 %
17:00:00 clear sky 43.050 43.050 43.050 8 2.92 m/h 0 %
20:00:00 clear sky 40.450 40.450 40.450 11 2.39 m/h 0 %
23:00:00 clear sky 37.772 37.772 37.772 16 1.36 m/h 0 %
29-Jun-2019 (Sat)
02:00:00 clear sky 34.772 34.772 34.772 17 1.8 m/h 0 %
05:00:00 clear sky 32.649 32.649 32.649 18 1.4 m/h 0 %
08:00:00 clear sky 35.467 35.467 35.467 15 1.55 m/h 0 %
11:00:00 clear sky 40.250 40.250 40.250 12 1.81 m/h 0 %
14:00:00 clear sky 43.550 43.550 43.550 9 2.53 m/h 0 %
17:00:00 scattered clouds 40.391 40.391 40.391 12 11.28 m/h 0 %
20:00:00 scattered clouds 38.850 38.850 38.850 15 3.98 m/h 0 %
23:00:00 light rain 37.650 37.650 37.650 17 1.89 m/h 13 %
30-Jun-2019 (Sun)
02:00:00 scattered clouds 35.566 35.566 35.566 20 1.97 m/h 0 %
05:00:00 scattered clouds 33.502 33.502 33.502 23 0.83 m/h 0 %
08:00:00 clear sky 36.052 36.052 36.052 19 1.12 m/h 0 %
11:00:00 clear sky 40.718 40.718 40.718 14 1.92 m/h 0 %
14:00:00 clear sky 44.109 44.109 44.109 10 3.1 m/h 0 %
17:00:00 clear sky 44.750 44.750 44.750 10 2.74 m/h 0 %
20:00:00 clear sky 42.650 42.650 42.650 11 3.35 m/h 0 %
23:00:00 clear sky 39.850 39.850 39.850 13 0.63 m/h 0 %
01-Jul-2019 (Mon)
02:00:00 clear sky 34.850 34.850 34.850 19 3.49 m/h 0 %
05:00:00 clear sky 33.335 33.335 33.335 23 0.6 m/h 0 %
08:00:00 clear sky 37.050 37.050 37.050 17 1.17 m/h 0 %
11:00:00 clear sky 41.950 41.950 41.950 11 1.96 m/h 0 %
14:00:00 clear sky 45.350 45.350 45.350 6 1.99 m/h 0 %

Famous Cities (60)